^^
Datos históricos de la estación: Murcia-Puente Tocinos
Diario Informe para Noviembre 09, 2018 Unidades:  Inglés    Métrico   Ambas
Diario Semanal Mensual Anual Configurable
  Máximo: Mínimo: Media:
Temperatura: 65.1 °F 52.9 °F 59.4 °F
Punto de rocio: 56.5 °F 37 °F 42.3 °F
Humedad: 91% 37% 55%
Velocidad viento: 14.7mph 1.8mph 7.5mph
Racha viento: 26.5mph - -
Viento- - WSW
Presión: 30.1 in 29.9 in -
Precipitación: 0.02 in    
Historical Graphs
 
 
Tabla de datos para Noviembre 09, 2018
Hora Temperatura Punto de rocio Presión Viento Velocidad viento Racha viento Humedad Intensidad lluvia(por hora) Nubes
00:00 60.1 °F 56.1 °F 29.9 in NE 5 mph 9 mph 87% 0 in RA
00:05 59.9 °F 55.9 °F 29.9 in ENE 4.7 mph 6.9 mph 87% 0 in RA
00:10 59.9 °F 55.9 °F 29.9 in North 4.7 mph 5.8 mph 87% 0 in BKN
00:15 59.7 °F 56.1 °F 29.9 in WNW 4.7 mph 8.1 mph 88% 0 in BKN
00:20 59.5 °F 56.3 °F 29.9 in WNW 4.7 mph 3.6 mph 89% 0 in -RA
00:25 59.5 °F 56.3 °F 29.9 in WNW 5 mph 4 mph 89% 0 in -RA
00:29 59.5 °F 56.3 °F 29.9 in WNW 2.4 mph 3.5 mph 89% 0 in -RA
00:35 59.7 °F 56.5 °F 29.9 in South 2.4 mph 4.6 mph 89% 0 in -RA
00:39 59.7 °F 56.5 °F 29.9 in SE 2.9 mph 5.8 mph 89% 0 in -RA
00:45 59.5 °F 56.3 °F 29.9 in SE 2.9 mph 4.6 mph 89% 0 in -RA
00:50 59.4 °F 56.5 °F 29.9 in SE 4 mph 4.6 mph 90% 0.01 in FEW
00:55 59.2 °F 56.1 °F 29.9 in SE 4 mph 5.8 mph 90% 0 in -RA
00:59 59 °F 56.1 °F 29.9 in SE 4 mph 5.8 mph 90% 0 in -RA
01:05 59 °F 56.1 °F 29.9 in SE 4 mph 6.9 mph 90% 0 in -RA
01:10 59 °F 56.1 °F 29.9 in SSE 4.3 mph 6.9 mph 90% 0 in FEW
01:15 58.8 °F 56.1 °F 29.9 in SSE 4.3 mph 6.9 mph 91% 0 in -RA
01:19 58.8 °F 55.9 °F 29.9 in South 4.7 mph 6.9 mph 90% 0 in -RA
01:25 59 °F 56.1 °F 29.9 in South 4.7 mph 5.8 mph 90% 0 in -RA
01:30 59 °F 56.1 °F 29.9 in South 5 mph 6 mph 90% 0 in -RA
01:35 59 °F 56.1 °F 29.9 in South 4.3 mph 5.8 mph 90% 0 in -RA
01:40 58.8 °F 55.9 °F 29.9 in SSW 4 mph 4.7 mph 90% 0 in -RA
01:45 58.8 °F 55.9 °F 29.9 in SW 4 mph 5.8 mph 90% 0 in -RA
01:50 58.8 °F 55.9 °F 29.9 in WSW 4 mph 5.8 mph 90% 0 in FEW
01:55 58.8 °F 55.9 °F 29.9 in WSW 4 mph 4.6 mph 90% 0 in -RA
01:59 58.8 °F 55.9 °F 29.9 in WSW 4 mph 5.8 mph 90% 0 in -RA
02:05 58.8 °F 55.9 °F 30 in WNW 4 mph 6.9 mph 90% 0 in -RA
02:10 59 °F 56.1 °F 30 in WNW 4 mph 6.9 mph 90% 0 in FEW
02:15 59 °F 55.8 °F 30 in WNW 4 mph 8.1 mph 89% 0 in -RA
02:20 58.8 °F 54.7 °F 30 in WNW 5.9 mph 18.4 mph 86% 0 in FEW
02:25 59.2 °F 53.4 °F 30 in West 5.9 mph 13.8 mph 81% 0 in FEW
02:30 59.2 °F 51.6 °F 30 in WNW 9.7 mph 17.3 mph 76% 0 in FEW
02:35 59.2 °F 51.3 °F 30 in WNW 9.7 mph 26.5 mph 75% 0.01 in RA
02:40 58.8 °F 50.9 °F 30 in NW 14.7 mph 26.5 mph 75% 0.01 in RA
02:45 57.9 °F 51.1 °F 30 in WNW 14.7 mph 13.8 mph 78% 0.01 in OVC
02:50 57.4 °F 51.6 °F 30 in West 13.7 mph 8.1 mph 81% 0.01 in BKN
02:55 56.8 °F 51.4 °F 30 in NW 13.7 mph 6.9 mph 82% 0.01 in OVC
02:59 56.7 °F 51.3 °F 30 in WNW 5.9 mph 5.8 mph 82% 0.01 in OVC
03:04 56.5 °F 51.4 °F 30 in WNW 5.9 mph 3.1 mph 83% 0.01 in OVC
03:10 56.7 °F 51.6 °F 30 in SE 2.4 mph 6.9 mph 83% 0.01 in BKN
03:15 56.7 °F 50.9 °F 30 in SSW 2.4 mph 11.5 mph 81% 0.01 in OVC
03:20 56.5 °F 50.4 °F 30 in SSW 5.4 mph 8.1 mph 80% 0.01 in BKN
03:25 56.1 °F 50 °F 30 in SSW 5.4 mph 6.9 mph 80% 0.01 in OVC
03:30 56.1 °F 50.4 °F 30 in SSW 5.9 mph 4.6 mph 81% 0.01 in BKN
03:35 56.1 °F 50.4 °F 30 in SSW 6 mph 5 mph 81% 0 in BKN
03:40 56.1 °F 50.4 °F 30 in WSW 3.1 mph 5.8 mph 81% 0 in BKN
03:45 56.1 °F 50.4 °F 30 in West 3.1 mph 4 mph 81% 0 in OVC
03:50 56.1 °F 50 °F 30 in WNW 4 mph 4.6 mph 80% 0 in FEW
03:55 56.1 °F 50.4 °F 30 in WSW 4 mph 5.2 mph 81% 0 in CLR
03:59 55.9 °F 49.8 °F 30 in SSW 2.9 mph 5.8 mph 80% 0 in CLR
04:05 55.9 °F 50.2 °F 30 in West 2.9 mph 4.6 mph 81% 0 in CLR
04:10 55.8 °F 50.4 °F 30 in West 3.1 mph 3.5 mph 82% 0 in FEW
04:15 55.8 °F 50.4 °F 30 in West 3.1 mph 4.7 mph 82% 0 in CLR
04:20 55.8 °F 50.7 °F 30 in West 2.9 mph 3.5 mph 83% 0 in -RA
04:25 55.6 °F 50.5 °F 30 in NE 2.9 mph 5.8 mph 83% 0 in BKN
04:30 55.4 °F 50.4 °F 30 in West 2.9 mph 4.6 mph 83% 0 in -RA
04:35 55.2 °F 49.8 °F 30 in SW 2.9 mph 8.1 mph 82% 0 in BKN
04:40 55.2 °F 49.8 °F 30 in WSW 3.1 mph 5.8 mph 82% 0 in -RA
04:45 55.2 °F 49.3 °F 30 in SW 3.1 mph 9.2 mph 80% 0 in BKN
04:50 55.4 °F 48.9 °F 30 in WSW 4.7 mph 8.1 mph 79% 0 in FEW
04:55 55.6 °F 48.6 °F 30 in WNW 4.7 mph 9.2 mph 77% 0 in BKN
04:59 55.6 °F 47.8 °F 30 in West 5.2 mph 13.8 mph 75% 0 in BKN
05:05 55.6 °F 47.5 °F 30 in West 5.2 mph 11.5 mph 74% 0 in BKN
05:10 55.2 °F 46.6 °F 30 in West 7 mph 12 mph 72% 0 in FEW
05:15 55.2 °F 46 °F 30 in WNW 6.4 mph 5.8 mph 71% 0.01 in RA
05:20 55 °F 45.3 °F 30 in NW 4.3 mph 5.8 mph 70% 0.01 in RA
05:25 54.9 °F 45 °F 30 in NW 4.3 mph 4.6 mph 69% 0.01 in BKN
05:30 54.7 °F 44.8 °F 30 in NW 3.1 mph 5.8 mph 69% 0.01 in FEW
05:35 54.5 °F 43.9 °F 30 in NW 3.1 mph 9.2 mph 67% 0.01 in BKN
05:40 54.5 °F 43.9 °F 30 in West 4 mph 5.9 mph 67% 0.01 in FEW
05:45 54.7 °F 43.2 °F 30 in WSW 4 mph 9.7 mph 65% 0.01 in BKN
05:50 54.9 °F 43 °F 30 in SW 5.2 mph 6.9 mph 64% 0.01 in FEW
05:55 54.7 °F 42.6 °F 30 in WNW 5.2 mph 9.2 mph 64% 0.01 in BKN
06:00 54.7 °F 42.4 °F 30 in West 6 mph 14 mph 63% 0 in BKN
06:04 54.9 °F 42.1 °F 30 in WNW 5.4 mph 17.3 mph 62% 0.01 in BKN
06:10 54.9 °F 41.7 °F 30 in West 7.6 mph 9.2 mph 61% 0.01 in FEW
06:15 54.9 °F 41.7 °F 30 in WNW 7.6 mph 8.1 mph 61% 0 in BKN
06:20 54.9 °F 41.7 °F 30 in WNW 5.4 mph 8.1 mph 61% 0 in FEW
06:25 54.7 °F 41.5 °F 30 in WNW 5.4 mph 5.8 mph 61% 0 in BKN
06:30 54.7 °F 41.9 °F 30 in WSW 4 mph 4.6 mph 62% 0 in FEW
06:35 54.7 °F 41.5 °F 30 in SW 4 mph 6.9 mph 61% 0 in BKN
06:40 54.7 °F 41.9 °F 30 in SW 4.3 mph 8.1 mph 62% 0 in FEW
06:45 54.7 °F 42.3 °F 30 in SW 4.3 mph 8.1 mph 63% 0 in BKN
06:50 54.3 °F 42.4 °F 30 in SW 5.4 mph 9.2 mph 64% 0 in FEW
06:55 54.1 °F 42.3 °F 30 in SSW 5.4 mph 10.4 mph 64% 0 in BKN
06:59 54.1 °F 42.6 °F 30 in SSW 6.4 mph 9.2 mph 65% 0 in BKN
07:05 54 °F 42.4 °F 30 in SW 6.4 mph 13.8 mph 65% 0 in FEW
07:10 53.8 °F 42.3 °F 30 in SW 6.4 mph 9.2 mph 65% 0 in FEW
07:15 53.4 °F 41.9 °F 30 in SSW 6.4 mph 10.4 mph 65% 0 in BKN
07:20 53.4 °F 41.9 °F 30 in SW 6.9 mph 10.4 mph 65% 0 in FEW
07:25 53.2 °F 42.3 °F 30 in SW 6.9 mph 7.4 mph 66% 0 in BKN
07:30 53.1 °F 41.5 °F 30 in South 5.9 mph 10.4 mph 65% 0 in FEW
07:35 53.1 °F 41.5 °F 30 in SW 6 mph 10 mph 65% 0 in FEW
07:40 52.9 °F 41.4 °F 30 in SW 5.9 mph 9.2 mph 65% 0 in FEW
07:45 53.1 °F 41.2 °F 30 in SSW 5.9 mph 15 mph 64% 0 in BKN
07:50 53.1 °F 40.8 °F 30 in WSW 6.2 mph 6.9 mph 63% 0 in FEW
07:55 53.1 °F 40.8 °F 30 in SW 6.2 mph 6.9 mph 63% 0 in BKN
08:00 53.2 °F 40.5 °F 30 in SW 5 mph 10 mph 62% 0 in BKN
08:05 53.4 °F 40.3 °F 30 in SSW 5.2 mph 8.1 mph 61% 0 in FEW
08:10 53.6 °F 40.5 °F 30 in SW 5.4 mph 6.9 mph 61% 0 in FEW
08:15 53.8 °F 40.3 °F 30 in SSW 5.4 mph 6.9 mph 60% 0 in BKN
08:20 54 °F 40.5 °F 30 in SSW 5.2 mph 8.1 mph 60% 0 in FEW
08:25 54.1 °F 40.6 °F 30 in WSW 5.2 mph 13.8 mph 60% 0 in BKN
08:30 54.1 °F 40.1 °F 30 in SSW 6.4 mph 13.8 mph 59% 0 in FEW
08:35 54.1 °F 40.3 °F 30 in SSW 7 mph 15 mph 59% 0 in FEW
08:40 54.5 °F 39.9 °F 30 in SSW 8.7 mph 16.1 mph 58% 0 in FEW
08:45 54.9 °F 40.5 °F 30 in South 8.7 mph 16.1 mph 58% 0 in BKN
08:50 54.9 °F 40.5 °F 30 in SSW 10.7 mph 13.8 mph 58% 0 in FEW
08:55 55 °F 40.5 °F 30 in SSW 10.7 mph 13.8 mph 58% 0 in BKN
08:59 55.2 °F 40.6 °F 30 in SW 9.7 mph 11.5 mph 58% 0 in BKN
09:05 55.2 °F 40.6 °F 30 in WSW 9.7 mph 9.7 mph 58% 0 in BKN
09:10 55.4 °F 40.8 °F 30 in SSW 6.9 mph 15 mph 58% 0 in FEW
09:15 55.6 °F 41 °F 30 in SSW 6.9 mph 8.1 mph 58% 0 in BKN
09:20 55.8 °F 41.2 °F 30 in SW 7.4 mph 6.9 mph 58% 0 in FEW
09:25 55.8 °F 41.2 °F 30 in SSW 7.4 mph 9.2 mph 58% 0 in BKN
09:30 55.9 °F 40.8 °F 30 in SW 6.2 mph 9.2 mph 57% 0 in FEW
09:35 56.1 °F 41.2 °F 30 in SW 6 mph 10 mph 57% 0 in FEW
09:40 56.5 °F 41.4 °F 30 in SSW 5.4 mph 4.6 mph 57% 0 in FEW
09:45 57 °F 41.5 °F 30 in SSW 5.4 mph 8.1 mph 56% 0 in BKN
09:50 57.6 °F 40.1 °F 30.1 in WSW 4.3 mph 18.4 mph 52% 0 in FEW
09:55 58.1 °F 39.6 °F 30.1 in WSW 4.3 mph 23 mph 50% 0 in BKN
09:59 58.5 °F 39.4 °F 30.1 in SSW 8.7 mph 16.1 mph 49% 0 in BKN
10:05 58.6 °F 39.6 °F 30.1 in West 8.7 mph 18.4 mph 49% 0 in BKN
10:10 58.6 °F 39.6 °F 30.1 in WSW 10.2 mph 12.7 mph 49% 0 in FEW
10:15 58.6 °F 39.6 °F 30.1 in SW 10.2 mph 15 mph 49% 0 in SCT
10:20 58.6 °F 39 °F 30.1 in WSW 10 mph 20.7 mph 48% 0 in SCT
10:25 58.6 °F 39 °F 30.1 in SW 10 mph 21.9 mph 48% 0 in SCT
10:30 58.8 °F 39 °F 30.1 in West 13 mph 22 mph 48% 0 in SCT
10:35 59.2 °F 39.6 °F 30.1 in West 13 mph 21.3 mph 48% 0 in SCT
10:40 59.4 °F 39.7 °F 30.1 in WSW 12.3 mph 16.1 mph 48% 0 in SCT
10:45 59.4 °F 40.3 °F 30.1 in West 12.3 mph 10.4 mph 49% 0 in SCT
10:50 59.4 °F 40.3 °F 30.1 in WNW 8.1 mph 12.7 mph 49% 0 in SCT
10:55 59.5 °F 39.7 °F 30.1 in WSW 8.1 mph 16.1 mph 48% 0 in SCT
11:00 59.5 °F 39.7 °F 30.1 in West 9 mph 15 mph 48% 0 in SCT
11:05 59.5 °F 39.7 °F 30.1 in West 8.7 mph 18.1 mph 48% 0 in SCT
11:10 59.7 °F 39.9 °F 30.1 in WSW 8.7 mph 16.1 mph 48% 0 in SCT
11:15 59.7 °F 39.4 °F 30.1 in WNW 8.7 mph 23 mph 47% 0 in SCT
11:20 60.1 °F 39.7 °F 30 in WSW 11.4 mph 16.1 mph 47% 0 in SCT
11:25 60.4 °F 40.1 °F 30 in WSW 11.4 mph 15 mph 47% 0 in FEW
11:30 61 °F 40.6 °F 30 in WNW 8.7 mph 10.4 mph 47% 0 in SCT
11:35 61.2 °F 40.8 °F 30 in WNW 8.7 mph 12.7 mph 47% 0 in SCT
11:40 61.3 °F 40.5 °F 30 in NNW 7.6 mph 18.4 mph 46% 0 in SCT
11:45 61.3 °F 40.5 °F 30 in NW 7.6 mph 17.3 mph 46% 0 in FEW
11:50 61.3 °F 40.5 °F 30 in SW 11.2 mph 17.3 mph 46% 0 in FEW
11:55 61.7 °F 40.1 °F 30 in WSW 11.2 mph 20.7 mph 45% 0 in FEW
12:00 61.9 °F 39.7 °F 30 in West 10 mph 24 mph 44% 0 in FEW
12:05 61.5 °F 39.4 °F 30 in NW 10.7 mph 23 mph 44% 0 in FEW
12:09 61.5 °F 39.9 °F 30 in West 13.5 mph 17.3 mph 45% 0 in FEW
12:15 62.1 °F 40.5 °F 30 in NW 13.5 mph 19.6 mph 45% 0 in SCT
12:20 62.2 °F 39.9 °F 30 in WNW 10.7 mph 18.4 mph 44% 0 in FEW
12:25 62.2 °F 39.9 °F 30 in WNW 10.7 mph 23 mph 44% 0 in SCT
12:30 62.1 °F 39.9 °F 30 in West 12.5 mph 20.7 mph 44% 0 in FEW
12:35 62.2 °F 39.9 °F 30 in West 12.5 mph 20.7 mph 44% 0 in SCT
12:40 62.4 °F 40.3 °F 30 in SW 10.7 mph 16.8 mph 44% 0 in FEW
12:45 62.4 °F 40.3 °F 30 in WNW 10.7 mph 17.3 mph 44% 0 in SCT
12:50 62.1 °F 40.5 °F 30 in WNW 11.8 mph 15 mph 45% 0 in FEW
12:55 62.8 °F 40.5 °F 30 in West 11.8 mph 15 mph 44% 0 in SCT
13:00 62.8 °F 39.9 °F 30 in West 9 mph 16 mph 43% 0 in SCT
13:05 63 °F 40.6 °F 30 in WSW 8.7 mph 15 mph 44% 0 in SCT
13:10 63.1 °F 39.7 °F 30 in WSW 10 mph 10.2 mph 42% 0 in FEW
13:15 63.3 °F 39.7 °F 30 in West 10 mph 20.7 mph 42% 0 in BKN
13:20 63.1 °F 39.7 °F 30 in NNW 10.7 mph 24.2 mph 42% 0 in SCT
13:25 63.3 °F 39.2 °F 30 in West 10.7 mph 20.7 mph 41% 0 in BKN
13:30 63.7 °F 39.6 °F 30 in WSW 13 mph 24.2 mph 41% 0 in SCT
13:35 63.7 °F 39.6 °F 30 in SSW 13 mph 18.4 mph 41% 0 in BKN
13:40 63.7 °F 39.6 °F 30 in SW 12.5 mph 19.6 mph 41% 0 in SCT
13:45 63.9 °F 39 °F 30 in West 12.5 mph 18.4 mph 40% 0 in BKN
13:50 63.7 °F 39.6 °F 30 in SW 11.8 mph 17.3 mph 41% 0 in SCT
13:55 63.9 °F 39.7 °F 30 in SW 11.8 mph 23 mph 41% 0 in BKN
13:59 63.7 °F 38.8 °F 30 in WSW 12.5 mph 24.2 mph 40% 0 in BKN
14:05 63.9 °F 39.7 °F 30 in West 12.5 mph 17.3 mph 41% 0 in BKN
14:10 64 °F 39.2 °F 30 in West 11.4 mph 19.6 mph 40% 0 in SCT
14:15 63.7 °F 39.6 °F 30 in West 11.4 mph 22.5 mph 41% 0 in BKN
14:20 63.7 °F 38.8 °F 30 in WSW 11.2 mph 21.5 mph 40% 0 in SCT
14:25 63.7 °F 38.8 °F 30 in WSW 11.2 mph 20.7 mph 40% 0 in BKN
14:30 63.9 °F 39 °F 30 in NW 13.5 mph 14 mph 40% 0 in SCT
14:34 64 °F 39.2 °F 30 in West 13.5 mph 19.6 mph 40% 0 in BKN
14:40 64 °F 39.2 °F 30 in West 11.2 mph 23 mph 40% 0 in SCT
14:45 64 °F 39.2 °F 30 in West 11.2 mph 16.1 mph 40% 0 in BKN
14:50 64.6 °F 39 °F 30 in WSW 11.4 mph 21.9 mph 39% 0 in FEW
14:55 64.8 °F 39.2 °F 30 in West 12 mph 22 mph 39% 0 in FEW
15:00 64.8 °F 38.5 °F 30 in West 13 mph 24 mph 38% 0 in BKN
15:05 64.4 °F 38.8 °F 30 in West 12.5 mph 16.1 mph 39% 0 in BKN
15:10 64.8 °F 39.2 °F 30 in West 12.5 mph 12.7 mph 39% 0 in FEW
15:15 65.1 °F 38.8 °F 30 in West 12.5 mph 23 mph 38% 0 in SCT
15:20 65.1 °F 38.8 °F 30 in WSW 10 mph 23 mph 38% 0 in FEW
15:25 64.9 °F 38.7 °F 30 in WNW 10 mph 24.2 mph 38% 0 in SCT
15:30 64.8 °F 38.5 °F 30 in SSW 12.3 mph 20.7 mph 38% 0 in FEW
15:35 64.8 °F 37.9 °F 30 in West 12.3 mph 18.4 mph 37% 0 in SCT
15:40 64.6 °F 37.8 °F 30 in WSW 12.5 mph 20.7 mph 37% 0 in FEW
15:45 64.6 °F 38.5 °F 30 in WSW 12.5 mph 23 mph 38% 0 in SCT
15:50 64.6 °F 38.5 °F 30 in WNW 14.5 mph 16.1 mph 38% 0 in FEW
15:55 64.6 °F 38.5 °F 30 in West 14.5 mph 25.3 mph 38% 0 in SCT
15:59 64.2 °F 38.1 °F 30 in West 13.7 mph 20.7 mph 38% 0 in SCT
16:05 64.4 °F 38.1 °F 30 in WSW 13.7 mph 21.9 mph 38% 0 in FEW
16:10 64.4 °F 38.1 °F 30 in West 14.7 mph 18.4 mph 38% 0 in FEW
16:15 64.2 °F 38.1 °F 30 in West 14.7 mph 24.2 mph 38% 0 in SCT
16:20 64.4 °F 38.8 °F 30 in WSW 14.5 mph 17.3 mph 39% 0 in FEW
16:25 64.4 °F 38.1 °F 30 in West 14.5 mph 20.7 mph 38% 0 in SCT
16:30 64.2 °F 38.1 °F 30 in SW 11.4 mph 24.2 mph 38% 0 in FEW
16:35 64.4 °F 38.1 °F 30 in WNW 11.4 mph 17.3 mph 38% 0 in SCT
16:40 64.2 °F 38.1 °F 30 in West 11.4 mph 16.1 mph 38% 0 in FEW
16:45 64.2 °F 38.1 °F 30 in WSW 11.4 mph 17.3 mph 38% 0 in SCT
16:50 64.2 °F 38.1 °F 30 in WSW 10 mph 15 mph 38% 0 in FEW
16:55 64 °F 38.7 °F 30 in WSW 10 mph 12.7 mph 39% 0 in SCT
16:59 64 °F 38.7 °F 30 in West 9.2 mph 15 mph 39% 0 in SCT
17:05 64 °F 38.7 °F 30 in WSW 9.2 mph 16.1 mph 39% 0 in SCT
17:10 63.9 °F 37.8 °F 30 in West 9.7 mph 15 mph 38% 0 in FEW
17:15 63.7 °F 37.6 °F 30 in WNW 9.7 mph 20.7 mph 38% 0 in FEW
17:20 63.7 °F 37.6 °F 30 in WSW 11.4 mph 16.1 mph 38% 0 in FEW
17:25 63.3 °F 37.2 °F 30 in West 11.4 mph 13.8 mph 38% 0 in FEW
17:30 63.1 °F 37 °F 30 in West 9.7 mph 15 mph 38% 0 in FEW
17:35 63.1 °F 37 °F 30 in West 9.7 mph 15 mph 38% 0 in FEW
17:40 63 °F 37.6 °F 30 in West 10.2 mph 13.8 mph 39% 0 in FEW
17:45 63 °F 37.6 °F 30 in WSW 10.2 mph 18.4 mph 39% 0 in FEW
17:50 62.8 °F 37.4 °F 30 in West 11.4 mph 18.4 mph 39% 0 in FEW
17:55 62.4 °F 37 °F 30 in WSW 11.4 mph 16.1 mph 39% 0 in FEW
17:59 62.4 °F 37.8 °F 30 in West 11.4 mph 16.1 mph 40% 0 in FEW
18:05 62.2 °F 37.6 °F 30 in West 11.4 mph 13.8 mph 40% 0 in FEW
18:10 62.2 °F 37.6 °F 30 in SSW 8.1 mph 9.2 mph 40% 0 in FEW
18:15 62.1 °F 37.4 °F 30 in SSW 8.1 mph 8.1 mph 40% 0 in FEW
18:20 62.1 °F 37.4 °F 30 in SSW 6.2 mph 8.1 mph 40% 0 in FEW
18:25 62.1 °F 37.4 °F 30 in South 6.2 mph 8.1 mph 40% 0 in CLR
18:30 62.1 °F 38.1 °F 30 in WSW 5.2 mph 8.1 mph 41% 0 in FEW
18:35 61.9 °F 37.9 °F 30 in SSW 5.2 mph 9.2 mph 41% 0 in CLR
18:40 61.9 °F 37.9 °F 30 in SW 5.4 mph 11.5 mph 41% 0 in FEW
18:45 61.9 °F 37.9 °F 30 in SSW 5.4 mph 10.4 mph 41% 0 in CLR
18:50 61.9 °F 37.9 °F 30.1 in SSW 6.2 mph 10.4 mph 41% 0 in CLR
18:55 61.9 °F 37.9 °F 30.1 in SSW 6.2 mph 8.1 mph 41% 0 in CLR
18:59 61.9 °F 37.9 °F 30.1 in SW 5.4 mph 11.5 mph 41% 0 in CLR
19:05 61.9 °F 37.9 °F 30.1 in SW 5.4 mph 10.4 mph 41% 0 in CLR
19:10 61.7 °F 37.8 °F 30.1 in SW 6.9 mph 13.8 mph 41% 0 in CLR
19:15 61.9 °F 37.9 °F 30.1 in SW 6.9 mph 12.7 mph 41% 0 in CLR
19:20 61.7 °F 37.8 °F 30.1 in WSW 8.7 mph 12.7 mph 41% 0 in CLR
19:25 61.5 °F 37.6 °F 30.1 in WSW 8.7 mph 12.7 mph 41% 0 in CLR
19:30 61.5 °F 37.6 °F 30.1 in West 8.1 mph 10.4 mph 41% 0 in CLR
19:35 61.3 °F 37.4 °F 30.1 in SW 8.1 mph 8.7 mph 41% 0 in CLR
19:40 61.3 °F 37.4 °F 30.1 in WSW 6.4 mph 15 mph 41% 0 in CLR
19:45 61.3 °F 37.4 °F 30.1 in SW 6.4 mph 11.5 mph 41% 0 in CLR
19:50 61.2 °F 37.2 °F 30.1 in WSW 6.9 mph 11.5 mph 41% 0 in CLR
19:55 61.2 °F 37.9 °F 30.1 in SW 6.9 mph 13.8 mph 42% 0 in CLR
19:59 61 °F 37.8 °F 30.1 in WSW 8.7 mph 10.4 mph 42% 0 in CLR
20:05 60.8 °F 37.6 °F 30.1 in SW 8.7 mph 9.2 mph 42% 0 in CLR
20:10 60.8 °F 38.1 °F 30.1 in SW 6.2 mph 10.4 mph 43% 0 in CLR
20:15 60.6 °F 37.9 °F 30.1 in SSW 6.2 mph 11.5 mph 43% 0 in BKN
20:20 60.6 °F 37.9 °F 30.1 in South 5.9 mph 6.2 mph 43% 0 in CLR
20:25 60.1 °F 38.1 °F 30.1 in SSW 5.9 mph 6.9 mph 44% 0 in BKN
20:30 59.7 °F 38.3 °F 30.1 in SSW 5.2 mph 5.8 mph 45% 0 in CLR
20:35 59.4 °F 37.9 °F 30.1 in WNW 5.2 mph 8.1 mph 45% 0 in CLR
20:40 59.5 °F 38.1 °F 30.1 in SW 5.2 mph 11.5 mph 45% 0 in CLR
20:45 59.5 °F 38.1 °F 30.1 in West 5.2 mph 9.2 mph 45% 0 in BKN
20:50 59.5 °F 38.1 °F 30.1 in WSW 6.2 mph 10.4 mph 45% 0 in CLR
20:55 59.5 °F 37.6 °F 30.1 in WSW 6.2 mph 16.1 mph 44% 0 in BKN
21:00 59.7 °F 37.8 °F 30.1 in WSW 8 mph 14 mph 44% 0 in BKN
21:05 59.9 °F 37.9 °F 30.1 in SW 7.6 mph 12.7 mph 44% 0 in BKN
21:10 59.9 °F 37.9 °F 30.1 in South 6.9 mph 8.1 mph 44% 0 in CLR
21:15 59.7 °F 37.8 °F 30.1 in SSW 6.9 mph 6.9 mph 44% 0 in SCT
21:20 59.5 °F 37.6 °F 30.1 in SW 4.7 mph 9.2 mph 44% 0 in CLR
21:25 59.5 °F 37.6 °F 30.1 in WSW 4.7 mph 10.4 mph 44% 0 in SCT
21:30 59.7 °F 37.2 °F 30.1 in WSW 5.9 mph 10.4 mph 43% 0 in CLR
21:35 59.5 °F 37.6 °F 30.1 in SW 5.9 mph 9.2 mph 44% 0 in SCT
21:40 59.5 °F 37.6 °F 30.1 in SE 6.2 mph 9.2 mph 44% 0 in CLR
21:45 59 °F 37.8 °F 30.1 in SSE 6.2 mph 6.9 mph 45% 0 in SCT
21:50 58.5 °F 37.8 °F 30.1 in South 4.7 mph 8.1 mph 46% 0 in CLR
21:55 58.5 °F 37.8 °F 30.1 in SSE 4.7 mph 6.9 mph 46% 0 in SCT
22:00 58.5 °F 37.8 °F 30.1 in SSE 6 mph 8 mph 46% 0 in SCT
22:05 58.8 °F 37.6 °F 30.1 in SSE 5.9 mph 9.2 mph 45% 0 in SCT
22:10 59.2 °F 37.8 °F 30.1 in WSW 6.2 mph 11.5 mph 45% 0 in CLR
22:15 59.5 °F 37.6 °F 30.1 in SW 6.2 mph 9.2 mph 44% 0 in SCT
22:20 59.7 °F 37.8 °F 30.1 in SSW 6.9 mph 6.9 mph 44% 0 in CLR
22:25 59.7 °F 37.8 °F 30.1 in SW 6.9 mph 8.1 mph 44% 0 in SCT
22:30 59.7 °F 37.8 °F 30.1 in SSW 5.2 mph 6.9 mph 44% 0 in CLR
22:35 60.1 °F 38.1 °F 30.1 in SW 5.2 mph 4.6 mph 44% 0 in SCT
22:40 60.1 °F 38.1 °F 30.1 in WSW 4.3 mph 4.6 mph 44% 0 in CLR
22:45 60.3 °F 38.1 °F 30.1 in SW 4.3 mph 5.8 mph 44% 0 in SCT
22:50 60.1 °F 38.1 °F 30.1 in SSE 3.6 mph 4.6 mph 44% 0 in CLR
22:55 59.7 °F 38.3 °F 30.1 in SSW 3.6 mph 4.6 mph 45% 0 in SCT
23:00 59.7 °F 38.3 °F 30.1 in South 3 mph 9 mph 45% 0 in SCT
23:05 59.5 °F 38.7 °F 30.1 in NW 3.1 mph 4.6 mph 46% 0 in SCT
23:10 59.4 °F 38.7 °F 30.1 in WNW 3.6 mph 3.5 mph 46% 0 in CLR
23:15 59.2 °F 38.5 °F 30.1 in SW 3.6 mph 5.8 mph 46% 0 in SCT
23:20 59.2 °F 38.8 °F 30.1 in WSW 3 mph 5 mph 47% 0 in CLR
23:25 59 °F 38.8 °F 30.1 in SW 3.1 mph 4.7 mph 47% 0 in SCT
23:30 59 °F 38.8 °F 30.1 in SW 1.8 mph 5.2 mph 47% 0 in CLR
23:35 59.2 °F 38.5 °F 30.1 in SW 2 mph 6 mph 46% 0 in CLR
23:40 59.4 °F 38.7 °F 30.1 in SW 4 mph 5.8 mph 46% 0 in CLR
23:45 59.5 °F 38.7 °F 30.1 in WSW 4 mph 5.8 mph 46% 0 in SCT
23:50 59.5 °F 38.7 °F 30.1 in SW 4 mph 8.1 mph 46% 0 in CLR
23:55 59.5 °F 38.1 °F 30.1 in West 4 mph 8.1 mph 45% 0 in SCT
23:59 59.5 °F 38.1 °F 30.1 in SSW 5.2 mph 7.6 mph 45% 0 in SCT
Murcia-Puente Tocinos, España
Compliments of Weather Underground - 2.75 mb

La estación de MeteoMurcia.com, publica sus datos en los siguientes proyectos:

Meteoclimatic www.awekas.at

W3Counter
Web Analytics